sensor_id;sensor_type;location;lat;lon;timestamp;temperature;humidity
80577;DHT22;69937;52.420;10.538;2024-03-17T00:04:44;4.10;67.90
80577;DHT22;69937;52.420;10.538;2024-03-17T00:09:45;4.00;68.10
80577;DHT22;69937;52.420;10.538;2024-03-17T00:14:47;4.00;68.20
80577;DHT22;69937;52.420;10.538;2024-03-17T00:19:47;3.90;68.50
80577;DHT22;69937;52.420;10.538;2024-03-17T00:24:48;3.90;68.70
80577;DHT22;69937;52.420;10.538;2024-03-17T00:29:48;3.80;68.90
80577;DHT22;69937;52.420;10.538;2024-03-17T00:34:49;3.70;69.30
80577;DHT22;69937;52.420;10.538;2024-03-17T00:39:50;3.80;69.40
80577;DHT22;69937;52.420;10.538;2024-03-17T00:44:50;3.90;69.30
80577;DHT22;69937;52.420;10.538;2024-03-17T00:49:51;3.90;69.20
80577;DHT22;69937;52.420;10.538;2024-03-17T00:54:51;3.90;69.10
80577;DHT22;69937;52.420;10.538;2024-03-17T00:59:52;3.80;68.90
80577;DHT22;69937;52.420;10.538;2024-03-17T01:04:53;3.60;69.00
80577;DHT22;69937;52.420;10.538;2024-03-17T01:09:53;3.60;69.60
80577;DHT22;69937;52.420;10.538;2024-03-17T01:14:55;3.50;69.90
80577;DHT22;69937;52.420;10.538;2024-03-17T01:19:56;3.50;70.10
80577;DHT22;69937;52.420;10.538;2024-03-17T01:24:56;3.50;70.20
80577;DHT22;69937;52.420;10.538;2024-03-17T01:29:57;3.50;70.10
80577;DHT22;69937;52.420;10.538;2024-03-17T01:34:57;3.50;70.30
80577;DHT22;69937;52.420;10.538;2024-03-17T01:40:01;3.40;70.10
80577;DHT22;69937;52.420;10.538;2024-03-17T01:45:25;3.30;70.60
80577;DHT22;69937;52.420;10.538;2024-03-17T01:50:31;3.30;71.10
80577;DHT22;69937;52.420;10.538;2024-03-17T01:55:35;3.30;71.30
80577;DHT22;69937;52.420;10.538;2024-03-17T02:00:37;3.30;71.60
80577;DHT22;69937;52.420;10.538;2024-03-17T02:05:39;3.20;71.70
80577;DHT22;69937;52.420;10.538;2024-03-17T02:10:39;3.10;71.70
80577;DHT22;69937;52.420;10.538;2024-03-17T02:15:40;3.10;72.00
80577;DHT22;69937;52.420;10.538;2024-03-17T02:20:41;3.00;71.80
80577;DHT22;69937;52.420;10.538;2024-03-17T02:25:59;3.00;72.50
80577;DHT22;69937;52.420;10.538;2024-03-17T02:30:59;3.00;72.50
80577;DHT22;69937;52.420;10.538;2024-03-17T02:36:00;2.80;71.50
80577;DHT22;69937;52.420;10.538;2024-03-17T02:41:01;2.80;71.90
80577;DHT22;69937;52.420;10.538;2024-03-17T02:46:02;2.50;72.00
80577;DHT22;69937;52.420;10.538;2024-03-17T02:51:06;2.50;72.30
80577;DHT22;69937;52.420;10.538;2024-03-17T02:56:06;2.50;73.40
80577;DHT22;69937;52.420;10.538;2024-03-17T03:01:07;2.50;73.90
80577;DHT22;69937;52.420;10.538;2024-03-17T03:06:07;2.50;74.20
80577;DHT22;69937;52.420;10.538;2024-03-17T03:11:13;2.50;73.40
80577;DHT22;69937;52.420;10.538;2024-03-17T03:16:14;2.40;72.80
80577;DHT22;69937;52.420;10.538;2024-03-17T03:21:15;2.30;73.50
80577;DHT22;69937;52.420;10.538;2024-03-17T03:26:15;2.20;73.80
80577;DHT22;69937;52.420;10.538;2024-03-17T03:31:16;2.20;74.30
80577;DHT22;69937;52.420;10.538;2024-03-17T03:36:18;2.20;74.20
80577;DHT22;69937;52.420;10.538;2024-03-17T03:41:18;2.00;73.00
80577;DHT22;69937;52.420;10.538;2024-03-17T03:46:19;1.90;74.40
80577;DHT22;69937;52.420;10.538;2024-03-17T03:51:21;1.90;74.50
80577;DHT22;69937;52.420;10.538;2024-03-17T03:56:21;2.00;75.10
80577;DHT22;69937;52.420;10.538;2024-03-17T04:01:22;2.00;75.50
80577;DHT22;69937;52.420;10.538;2024-03-17T04:06:22;2.00;74.80
80577;DHT22;69937;52.420;10.538;2024-03-17T04:11:23;1.80;75.20
80577;DHT22;69937;52.420;10.538;2024-03-17T04:16:24;1.80;75.60
80577;DHT22;69937;52.420;10.538;2024-03-17T04:21:26;1.70;76.50
80577;DHT22;69937;52.420;10.538;2024-03-17T04:26:26;1.60;76.50
80577;DHT22;69937;52.420;10.538;2024-03-17T04:31:27;1.60;76.50
80577;DHT22;69937;52.420;10.538;2024-03-17T04:36:28;1.50;76.40
80577;DHT22;69937;52.420;10.538;2024-03-17T04:41:28;1.60;76.40
80577;DHT22;69937;52.420;10.538;2024-03-17T04:46:29;1.60;76.40
80577;DHT22;69937;52.420;10.538;2024-03-17T04:51:30;1.60;76.40
80577;DHT22;69937;52.420;10.538;2024-03-17T04:56:31;1.60;76.30
80577;DHT22;69937;52.420;10.538;2024-03-17T05:01:31;1.70;76.20
80577;DHT22;69937;52.420;10.538;2024-03-17T05:06:36;1.80;76.30
80577;DHT22;69937;52.420;10.538;2024-03-17T05:11:36;1.80;76.50
80577;DHT22;69937;52.420;10.538;2024-03-17T05:16:38;1.90;76.70
80577;DHT22;69937;52.420;10.538;2024-03-17T05:21:38;1.90;76.50
80577;DHT22;69937;52.420;10.538;2024-03-17T05:26:39;2.00;76.50
80577;DHT22;69937;52.420;10.538;2024-03-17T05:31:40;2.00;76.80
80577;DHT22;69937;52.420;10.538;2024-03-17T05:36:40;2.10;76.80
80577;DHT22;69937;52.420;10.538;2024-03-17T05:41:41;2.20;77.20
80577;DHT22;69937;52.420;10.538;2024-03-17T05:46:44;2.30;77.50
80577;DHT22;69937;52.420;10.538;2024-03-17T05:51:44;2.40;77.30
80577;DHT22;69937;52.420;10.538;2024-03-17T05:56:45;2.40;77.40
80577;DHT22;69937;52.420;10.538;2024-03-17T06:01:45;2.50;77.50
80577;DHT22;69937;52.420;10.538;2024-03-17T06:06:46;2.70;77.80
80577;DHT22;69937;52.420;10.538;2024-03-17T06:11:48;2.80;77.60
80577;DHT22;69937;52.420;10.538;2024-03-17T06:16:49;2.90;77.30
80577;DHT22;69937;52.420;10.538;2024-03-17T06:21:49;3.00;77.20
80577;DHT22;69937;52.420;10.538;2024-03-17T06:26:51;3.10;77.10
80577;DHT22;69937;52.420;10.538;2024-03-17T06:31:52;3.10;76.90
80577;DHT22;69937;52.420;10.538;2024-03-17T06:36:52;3.20;77.20
80577;DHT22;69937;52.420;10.538;2024-03-17T06:41:53;3.30;77.30
80577;DHT22;69937;52.420;10.538;2024-03-17T06:46:54;3.50;77.30
80577;DHT22;69937;52.420;10.538;2024-03-17T06:51:54;3.60;77.00
80577;DHT22;69937;52.420;10.538;2024-03-17T06:56:55;3.70;76.80
80577;DHT22;69937;52.420;10.538;2024-03-17T07:01:55;3.90;76.80
80577;DHT22;69937;52.420;10.538;2024-03-17T07:06:56;4.10;76.80
80577;DHT22;69937;52.420;10.538;2024-03-17T07:11:57;4.30;76.50
80577;DHT22;69937;52.420;10.538;2024-03-17T07:16:57;4.50;75.90
80577;DHT22;69937;52.420;10.538;2024-03-17T07:21:58;4.70;75.40
80577;DHT22;69937;52.420;10.538;2024-03-17T07:26:58;5.00;74.90
80577;DHT22;69937;52.420;10.538;2024-03-17T07:31:59;5.20;74.50
80577;DHT22;69937;52.420;10.538;2024-03-17T07:37:00;5.50;74.10
80577;DHT22;69937;52.420;10.538;2024-03-17T07:42:01;5.80;72.80
80577;DHT22;69937;52.420;10.538;2024-03-17T07:47:05;6.20;71.90
80577;DHT22;69937;52.420;10.538;2024-03-17T07:52:06;6.50;71.30
80577;DHT22;69937;52.420;10.538;2024-03-17T07:57:07;6.70;70.50
80577;DHT22;69937;52.420;10.538;2024-03-17T08:02:09;6.90;70.50
80577;DHT22;69937;52.420;10.538;2024-03-17T08:07:10;7.20;69.40
80577;DHT22;69937;52.420;10.538;2024-03-17T08:12:10;7.40;68.40
80577;DHT22;69937;52.420;10.538;2024-03-17T08:17:11;7.60;67.50
80577;DHT22;69937;52.420;10.538;2024-03-17T08:22:12;8.00;67.60
80577;DHT22;69937;52.420;10.538;2024-03-17T08:27:12;8.30;67.50
80577;DHT22;69937;52.420;10.538;2024-03-17T08:32:13;8.80;66.30
80577;DHT22;69937;52.420;10.538;2024-03-17T08:37:15;9.20;64.90
80577;DHT22;69937;52.420;10.538;2024-03-17T08:42:15;9.60;63.50
80577;DHT22;69937;52.420;10.538;2024-03-17T08:47:16;10.00;61.80
80577;DHT22;69937;52.420;10.538;2024-03-17T08:52:17;10.20;60.80
80577;DHT22;69937;52.420;10.538;2024-03-17T08:57:17;10.40;60.90
80577;DHT22;69937;52.420;10.538;2024-03-17T09:02:18;11.00;59.40
80577;DHT22;69937;52.420;10.538;2024-03-17T09:07:20;11.10;58.90
80577;DHT22;69937;52.420;10.538;2024-03-17T09:12:20;10.80;59.30
80577;DHT22;69937;52.420;10.538;2024-03-17T09:17:21;10.30;59.70
80577;DHT22;69937;52.420;10.538;2024-03-17T09:22:22;10.00;59.40
80577;DHT22;69937;52.420;10.538;2024-03-17T09:27:22;9.70;58.50
80577;DHT22;69937;52.420;10.538;2024-03-17T09:32:26;9.80;60.40
80577;DHT22;69937;52.420;10.538;2024-03-17T09:37:28;10.00;60.10
80577;DHT22;69937;52.420;10.538;2024-03-17T09:42:31;10.00;58.20
80577;DHT22;69937;52.420;10.538;2024-03-17T09:47:32;9.90;55.90
80577;DHT22;69937;52.420;10.538;2024-03-17T09:52:34;10.00;56.30
80577;DHT22;69937;52.420;10.538;2024-03-17T09:57:36;10.10;53.40
80577;DHT22;69937;52.420;10.538;2024-03-17T10:02:44;10.20;56.60
80577;DHT22;69937;52.420;10.538;2024-03-17T10:07:45;10.30;55.80
80577;DHT22;69937;52.420;10.538;2024-03-17T10:12:52;11.10;54.00
80577;DHT22;69937;52.420;10.538;2024-03-17T10:17:53;11.40;52.40
80577;DHT22;69937;52.420;10.538;2024-03-17T10:28:01;12.00;51.10
80577;DHT22;69937;52.420;10.538;2024-03-17T10:33:02;11.80;50.80
80577;DHT22;69937;52.420;10.538;2024-03-17T10:38:04;11.40;52.00
80577;DHT22;69937;52.420;10.538;2024-03-17T10:43:06;11.40;51.90
80577;DHT22;69937;52.420;10.538;2024-03-17T10:48:07;11.30;52.40
80577;DHT22;69937;52.420;10.538;2024-03-17T10:53:09;12.00;51.30
80577;DHT22;69937;52.420;10.538;2024-03-17T10:58:35;12.50;50.80
80577;DHT22;69937;52.420;10.538;2024-03-17T11:03:41;12.70;49.30
80577;DHT22;69937;52.420;10.538;2024-03-17T11:08:42;12.50;49.60
80577;DHT22;69937;52.420;10.538;2024-03-17T11:13:43;12.80;48.90
80577;DHT22;69937;52.420;10.538;2024-03-17T11:18:43;12.80;50.10
80577;DHT22;69937;52.420;10.538;2024-03-17T11:24:03;12.70;48.90
80577;DHT22;69937;52.420;10.538;2024-03-17T11:29:04;12.70;48.80
80577;DHT22;69937;52.420;10.538;2024-03-17T11:34:26;12.80;48.90
80577;DHT22;69937;52.420;10.538;2024-03-17T11:39:48;12.80;48.70
80577;DHT22;69937;52.420;10.538;2024-03-17T11:45:12;14.00;47.10
80577;DHT22;69937;52.420;10.538;2024-03-17T11:50:13;15.20;44.70
80577;DHT22;69937;52.420;10.538;2024-03-17T11:55:16;16.40;43.40
80577;DHT22;69937;52.420;10.538;2024-03-17T12:00:22;17.00;42.30
80577;DHT22;69937;52.420;10.538;2024-03-17T12:05:23;17.20;42.20
80577;DHT22;69937;52.420;10.538;2024-03-17T12:10:24;17.70;41.40
80577;DHT22;69937;52.420;10.538;2024-03-17T12:15:25;18.30;40.80
80577;DHT22;69937;52.420;10.538;2024-03-17T12:20:26;19.50;38.40
80577;DHT22;69937;52.420;10.538;2024-03-17T12:25:27;19.80;38.50
80577;DHT22;69937;52.420;10.538;2024-03-17T12:30:29;19.70;39.10
80577;DHT22;69937;52.420;10.538;2024-03-17T12:35:30;20.30;37.90
80577;DHT22;69937;52.420;10.538;2024-03-17T12:40:34;20.30;37.90
80577;DHT22;69937;52.420;10.538;2024-03-17T12:45:34;20.30;38.00
80577;DHT22;69937;52.420;10.538;2024-03-17T12:50:35;20.60;37.60
80577;DHT22;69937;52.420;10.538;2024-03-17T12:55:36;20.80;36.90
80577;DHT22;69937;52.420;10.538;2024-03-17T13:05:59;20.80;36.80
80577;DHT22;69937;52.420;10.538;2024-03-17T13:11:00;20.70;36.70
80577;DHT22;69937;52.420;10.538;2024-03-17T13:16:01;20.30;36.90
80577;DHT22;69937;52.420;10.538;2024-03-17T13:21:03;21.00;36.60
80577;DHT22;69937;52.420;10.538;2024-03-17T13:26:04;22.30;36.20
80577;DHT22;69937;52.420;10.538;2024-03-17T13:31:04;23.40;34.70
80577;DHT22;69937;52.420;10.538;2024-03-17T13:36:07;25.10;33.10
80577;DHT22;69937;52.420;10.538;2024-03-17T13:41:08;25.50;32.60
80577;DHT22;69937;52.420;10.538;2024-03-17T13:46:09;25.00;32.30
80577;DHT22;69937;52.420;10.538;2024-03-17T13:51:10;24.40;33.20
80577;DHT22;69937;52.420;10.538;2024-03-17T13:56:10;23.90;33.20
80577;DHT22;69937;52.420;10.538;2024-03-17T14:01:13;23.10;34.30
80577;DHT22;69937;52.420;10.538;2024-03-17T14:06:13;22.50;34.00
80577;DHT22;69937;52.420;10.538;2024-03-17T14:11:14;22.10;34.80
80577;DHT22;69937;52.420;10.538;2024-03-17T14:16:14;21.90;34.70
80577;DHT22;69937;52.420;10.538;2024-03-17T14:21:15;22.00;34.20
80577;DHT22;69937;52.420;10.538;2024-03-17T14:26:16;22.30;34.40
80577;DHT22;69937;52.420;10.538;2024-03-17T14:31:17;22.50;34.70
80577;DHT22;69937;52.420;10.538;2024-03-17T14:36:18;22.10;33.70
80577;DHT22;69937;52.420;10.538;2024-03-17T14:41:20;22.20;33.90
80577;DHT22;69937;52.420;10.538;2024-03-17T14:46:20;22.00;33.90
80577;DHT22;69937;52.420;10.538;2024-03-17T14:51:21;21.60;34.50
80577;DHT22;69937;52.420;10.538;2024-03-17T14:56:22;21.00;35.10
80577;DHT22;69937;52.420;10.538;2024-03-17T15:01:22;20.30;36.20
80577;DHT22;69937;52.420;10.538;2024-03-17T15:06:23;19.20;36.70
80577;DHT22;69937;52.420;10.538;2024-03-17T15:11:25;18.70;36.90
80577;DHT22;69937;52.420;10.538;2024-03-17T15:16:25;18.00;38.10
80577;DHT22;69937;52.420;10.538;2024-03-17T15:21:26;17.20;39.30
80577;DHT22;69937;52.420;10.538;2024-03-17T15:26:27;17.00;40.30
80577;DHT22;69937;52.420;10.538;2024-03-17T15:31:27;16.60;39.50
80577;DHT22;69937;52.420;10.538;2024-03-17T15:36:28;17.00;39.20
80577;DHT22;69937;52.420;10.538;2024-03-17T15:41:30;17.00;39.10
80577;DHT22;69937;52.420;10.538;2024-03-17T15:46:33;16.80;40.30
80577;DHT22;69937;52.420;10.538;2024-03-17T15:51:34;16.10;40.80
80577;DHT22;69937;52.420;10.538;2024-03-17T15:56:34;16.10;40.00
80577;DHT22;69937;52.420;10.538;2024-03-17T16:01:35;16.10;40.10
80577;DHT22;69937;52.420;10.538;2024-03-17T16:06:36;15.50;40.90
80577;DHT22;69937;52.420;10.538;2024-03-17T16:11:37;15.40;41.30
80577;DHT22;69937;52.420;10.538;2024-03-17T16:16:40;15.10;41.70
80577;DHT22;69937;52.420;10.538;2024-03-17T16:21:41;14.60;42.80
80577;DHT22;69937;52.420;10.538;2024-03-17T16:26:41;14.20;44.20
80577;DHT22;69937;52.420;10.538;2024-03-17T16:31:42;13.70;43.90
80577;DHT22;69937;52.420;10.538;2024-03-17T16:36:43;13.50;44.00
80577;DHT22;69937;52.420;10.538;2024-03-17T16:41:47;13.10;43.80
80577;DHT22;69937;52.420;10.538;2024-03-17T16:51:50;12.50;45.80
80577;DHT22;69937;52.420;10.538;2024-03-17T16:56:51;12.00;46.70
80577;DHT22;69937;52.420;10.538;2024-03-17T17:01:52;11.70;47.20
80577;DHT22;69937;52.420;10.538;2024-03-17T17:06:53;11.50;47.20
80577;DHT22;69937;52.420;10.538;2024-03-17T17:11:56;11.30;47.50
80577;DHT22;69937;52.420;10.538;2024-03-17T17:16:57;11.00;48.40
80577;DHT22;69937;52.420;10.538;2024-03-17T17:21:58;10.70;48.40
80577;DHT22;69937;52.420;10.538;2024-03-17T17:27:06;10.30;49.10
80577;DHT22;69937;52.420;10.538;2024-03-17T17:32:09;10.20;49.80
80577;DHT22;69937;52.420;10.538;2024-03-17T17:37:10;10.00;49.30
80577;DHT22;69937;52.420;10.538;2024-03-17T17:42:12;9.80;49.90
80577;DHT22;69937;52.420;10.538;2024-03-17T17:47:18;9.60;50.40
80577;DHT22;69937;52.420;10.538;2024-03-17T17:52:22;9.40;51.10
80577;DHT22;69937;52.420;10.538;2024-03-17T17:57:33;9.30;51.60
80577;DHT22;69937;52.420;10.538;2024-03-17T18:02:36;9.20;52.00
80577;DHT22;69937;52.420;10.538;2024-03-17T18:07:47;9.00;52.50
80577;DHT22;69937;52.420;10.538;2024-03-17T18:12:48;8.90;52.80
80577;DHT22;69937;52.420;10.538;2024-03-17T18:17:48;8.70;53.20
80577;DHT22;69937;52.420;10.538;2024-03-17T18:22:49;8.60;53.50
80577;DHT22;69937;52.420;10.538;2024-03-17T18:27:49;8.50;53.50
80577;DHT22;69937;52.420;10.538;2024-03-17T18:32:50;8.40;53.70
80577;DHT22;69937;52.420;10.538;2024-03-17T18:37:51;8.30;53.80
80577;DHT22;69937;52.420;10.538;2024-03-17T18:42:52;8.20;54.00
80577;DHT22;69937;52.420;10.538;2024-03-17T18:47:53;8.10;53.70
80577;DHT22;69937;52.420;10.538;2024-03-17T18:52:53;8.00;53.60
80577;DHT22;69937;52.420;10.538;2024-03-17T18:57:54;8.00;54.00
80577;DHT22;69937;52.420;10.538;2024-03-17T19:02:54;7.80;54.50
80577;DHT22;69937;52.420;10.538;2024-03-17T19:07:55;7.80;54.70
80577;DHT22;69937;52.420;10.538;2024-03-17T19:12:55;7.60;55.10
80577;DHT22;69937;52.420;10.538;2024-03-17T19:17:56;7.40;55.60
80577;DHT22;69937;52.420;10.538;2024-03-17T19:22:57;7.40;55.70
80577;DHT22;69937;52.420;10.538;2024-03-17T19:27:58;7.20;55.80
80577;DHT22;69937;52.420;10.538;2024-03-17T19:32:59;7.10;55.80
80577;DHT22;69937;52.420;10.538;2024-03-17T19:37:59;7.00;56.10
80577;DHT22;69937;52.420;10.538;2024-03-17T19:43:00;7.00;57.60
80577;DHT22;69937;52.420;10.538;2024-03-17T19:48:00;6.80;58.50
80577;DHT22;69937;52.420;10.538;2024-03-17T19:53:01;6.60;59.70
80577;DHT22;69937;52.420;10.538;2024-03-17T19:58:01;6.50;59.40
80577;DHT22;69937;52.420;10.538;2024-03-17T20:03:04;6.50;58.70
80577;DHT22;69937;52.420;10.538;2024-03-17T20:08:05;6.50;58.90
80577;DHT22;69937;52.420;10.538;2024-03-17T20:13:06;6.40;59.20
80577;DHT22;69937;52.420;10.538;2024-03-17T20:18:07;6.40;59.50
80577;DHT22;69937;52.420;10.538;2024-03-17T20:23:08;6.30;60.00
80577;DHT22;69937;52.420;10.538;2024-03-17T20:28:12;6.30;60.00
80577;DHT22;69937;52.420;10.538;2024-03-17T20:33:12;6.20;60.00
80577;DHT22;69937;52.420;10.538;2024-03-17T20:38:13;6.10;60.00
80577;DHT22;69937;52.420;10.538;2024-03-17T20:43:14;6.10;59.70
80577;DHT22;69937;52.420;10.538;2024-03-17T20:48:15;6.00;59.80
80577;DHT22;69937;52.420;10.538;2024-03-17T20:53:16;6.00;60.10
80577;DHT22;69937;52.420;10.538;2024-03-17T20:58:17;5.90;59.70
80577;DHT22;69937;52.420;10.538;2024-03-17T21:03:17;5.90;60.10
80577;DHT22;69937;52.420;10.538;2024-03-17T21:08:18;5.90;59.40
80577;DHT22;69937;52.420;10.538;2024-03-17T21:13:19;5.90;59.20
80577;DHT22;69937;52.420;10.538;2024-03-17T21:18:19;6.00;58.90
80577;DHT22;69937;52.420;10.538;2024-03-17T21:23:23;6.00;58.70
80577;DHT22;69937;52.420;10.538;2024-03-17T21:28:23;5.90;58.90
80577;DHT22;69937;52.420;10.538;2024-03-17T21:33:24;5.90;58.50
80577;DHT22;69937;52.420;10.538;2024-03-17T21:38:25;5.90;59.00
80577;DHT22;69937;52.420;10.538;2024-03-17T21:43:26;5.90;59.10
80577;DHT22;69937;52.420;10.538;2024-03-17T21:48:26;5.80;58.60
80577;DHT22;69937;52.420;10.538;2024-03-17T21:53:27;5.80;58.20
80577;DHT22;69937;52.420;10.538;2024-03-17T21:58:29;5.80;58.50
80577;DHT22;69937;52.420;10.538;2024-03-17T22:03:30;5.80;58.50
80577;DHT22;69937;52.420;10.538;2024-03-17T22:08:35;5.70;58.90
80577;DHT22;69937;52.420;10.538;2024-03-17T22:13:35;5.70;59.50
80577;DHT22;69937;52.420;10.538;2024-03-17T22:18:37;5.70;59.30
80577;DHT22;69937;52.420;10.538;2024-03-17T22:23:42;5.60;59.90
80577;DHT22;69937;52.420;10.538;2024-03-17T22:28:43;5.60;60.50
80577;DHT22;69937;52.420;10.538;2024-03-17T22:33:43;5.60;60.80
80577;DHT22;69937;52.420;10.538;2024-03-17T22:38:44;5.50;61.70
80577;DHT22;69937;52.420;10.538;2024-03-17T22:43:45;5.40;61.60
80577;DHT22;69937;52.420;10.538;2024-03-17T22:48:46;5.40;61.80
80577;DHT22;69937;52.420;10.538;2024-03-17T22:53:46;5.30;62.20
80577;DHT22;69937;52.420;10.538;2024-03-17T22:58:47;5.30;62.40
80577;DHT22;69937;52.420;10.538;2024-03-17T23:03:48;5.30;62.30
80577;DHT22;69937;52.420;10.538;2024-03-17T23:08:48;5.30;61.60
80577;DHT22;69937;52.420;10.538;2024-03-17T23:13:49;5.30;61.80
80577;DHT22;69937;52.420;10.538;2024-03-17T23:18:51;5.30;61.40
80577;DHT22;69937;52.420;10.538;2024-03-17T23:23:52;5.40;60.80
80577;DHT22;69937;52.420;10.538;2024-03-17T23:28:52;5.40;60.50
80577;DHT22;69937;52.420;10.538;2024-03-17T23:33:53;5.40;60.50
80577;DHT22;69937;52.420;10.538;2024-03-17T23:38:54;5.40;60.30
80577;DHT22;69937;52.420;10.538;2024-03-17T23:43:55;5.30;60.50
80577;DHT22;69937;52.420;10.538;2024-03-17T23:48:56;5.30;60.70
80577;DHT22;69937;52.420;10.538;2024-03-17T23:53:57;5.30;60.70
80577;DHT22;69937;52.420;10.538;2024-03-17T23:58:58;5.30;60.80
